sensor_id;sensor_type;location;lat;lon;timestamp;P1;durP1;ratioP1;P2;durP2;ratioP2
40367;SDS011;26075;43.320;21.920;2023-06-10T00:04:47;6.45;;;3.20;;
40367;SDS011;26075;43.320;21.920;2023-06-10T00:09:48;6.20;;;3.35;;
40367;SDS011;26075;43.320;21.920;2023-06-10T00:14:50;6.00;;;3.28;;
40367;SDS011;26075;43.320;21.920;2023-06-10T00:19:53;8.20;;;3.40;;
40367;SDS011;26075;43.320;21.920;2023-06-10T00:24:55;5.65;;;3.78;;
40367;SDS011;26075;43.320;21.920;2023-06-10T00:29:56;6.03;;;3.53;;
40367;SDS011;26075;43.320;21.920;2023-06-10T00:34:58;7.43;;;3.83;;
40367;SDS011;26075;43.320;21.920;2023-06-10T00:39:59;6.78;;;3.65;;
40367;SDS011;26075;43.320;21.920;2023-06-10T00:45:00;5.78;;;3.50;;
40367;SDS011;26075;43.320;21.920;2023-06-10T00:50:01;5.25;;;3.22;;
40367;SDS011;26075;43.320;21.920;2023-06-10T00:55:02;6.35;;;3.65;;
40367;SDS011;26075;43.320;21.920;2023-06-10T01:00:04;8.20;;;3.83;;
40367;SDS011;26075;43.320;21.920;2023-06-10T01:05:08;7.10;;;3.55;;
40367;SDS011;26075;43.320;21.920;2023-06-10T01:10:16;6.85;;;3.75;;
40367;SDS011;26075;43.320;21.920;2023-06-10T01:15:21;6.00;;;3.70;;
40367;SDS011;26075;43.320;21.920;2023-06-10T01:20:22;6.55;;;3.40;;
40367;SDS011;26075;43.320;21.920;2023-06-10T01:25:24;5.85;;;3.33;;
40367;SDS011;26075;43.320;21.920;2023-06-10T01:30:35;6.18;;;3.75;;
40367;SDS011;26075;43.320;21.920;2023-06-10T01:40:39;8.52;;;3.72;;
40367;SDS011;26075;43.320;21.920;2023-06-10T01:45:40;7.18;;;3.55;;
40367;SDS011;26075;43.320;21.920;2023-06-10T01:50:42;5.03;;;3.38;;
40367;SDS011;26075;43.320;21.920;2023-06-10T01:55:44;6.55;;;3.53;;
40367;SDS011;26075;43.320;21.920;2023-06-10T02:00:45;4.53;;;2.92;;
40367;SDS011;26075;43.320;21.920;2023-06-10T02:05:46;4.78;;;3.05;;
40367;SDS011;26075;43.320;21.920;2023-06-10T02:10:47;8.98;;;4.53;;
40367;SDS011;26075;43.320;21.920;2023-06-10T02:15:48;6.45;;;3.35;;
40367;SDS011;26075;43.320;21.920;2023-06-10T02:20:49;5.82;;;3.30;;
40367;SDS011;26075;43.320;21.920;2023-06-10T02:25:50;9.27;;;3.97;;
40367;SDS011;26075;43.320;21.920;2023-06-10T02:30:51;4.80;;;3.47;;
40367;SDS011;26075;43.320;21.920;2023-06-10T02:35:52;4.32;;;3.30;;
40367;SDS011;26075;43.320;21.920;2023-06-10T02:40:53;6.18;;;3.50;;
40367;SDS011;26075;43.320;21.920;2023-06-10T02:45:54;5.50;;;3.45;;
40367;SDS011;26075;43.320;21.920;2023-06-10T02:50:55;11.40;;;3.90;;
40367;SDS011;26075;43.320;21.920;2023-06-10T02:55:57;13.82;;;4.65;;
40367;SDS011;26075;43.320;21.920;2023-06-10T03:00:58;7.50;;;4.07;;
40367;SDS011;26075;43.320;21.920;2023-06-10T03:05:59;7.03;;;3.50;;
40367;SDS011;26075;43.320;21.920;2023-06-10T03:11:00;7.70;;;4.07;;
40367;SDS011;26075;43.320;21.920;2023-06-10T03:16:01;10.15;;;3.78;;
40367;SDS011;26075;43.320;21.920;2023-06-10T03:21:03;6.55;;;3.72;;
40367;SDS011;26075;43.320;21.920;2023-06-10T03:26:04;5.57;;;3.50;;
40367;SDS011;26075;43.320;21.920;2023-06-10T03:31:05;6.80;;;3.47;;
40367;SDS011;26075;43.320;21.920;2023-06-10T03:36:06;7.15;;;3.50;;
40367;SDS011;26075;43.320;21.920;2023-06-10T03:41:07;5.68;;;3.55;;
40367;SDS011;26075;43.320;21.920;2023-06-10T03:46:08;11.60;;;3.88;;
40367;SDS011;26075;43.320;21.920;2023-06-10T03:51:10;8.55;;;3.35;;
40367;SDS011;26075;43.320;21.920;2023-06-10T03:56:11;6.03;;;3.65;;
40367;SDS011;26075;43.320;21.920;2023-06-10T04:01:12;6.38;;;3.58;;
40367;SDS011;26075;43.320;21.920;2023-06-10T04:06:13;6.05;;;3.63;;
40367;SDS011;26075;43.320;21.920;2023-06-10T04:11:14;5.20;;;3.13;;
40367;SDS011;26075;43.320;21.920;2023-06-10T04:16:16;5.32;;;3.72;;
40367;SDS011;26075;43.320;21.920;2023-06-10T04:21:17;4.65;;;3.08;;
40367;SDS011;26075;43.320;21.920;2023-06-10T04:26:18;6.53;;;3.38;;
40367;SDS011;26075;43.320;21.920;2023-06-10T04:31:19;6.18;;;3.40;;
40367;SDS011;26075;43.320;21.920;2023-06-10T04:36:20;7.28;;;3.42;;
40367;SDS011;26075;43.320;21.920;2023-06-10T04:41:21;5.75;;;3.17;;
40367;SDS011;26075;43.320;21.920;2023-06-10T04:46:23;5.18;;;3.88;;
40367;SDS011;26075;43.320;21.920;2023-06-10T04:51:24;6.85;;;3.67;;
40367;SDS011;26075;43.320;21.920;2023-06-10T04:56:25;5.10;;;3.40;;
40367;SDS011;26075;43.320;21.920;2023-06-10T05:01:27;7.80;;;3.95;;
40367;SDS011;26075;43.320;21.920;2023-06-10T05:06:28;6.38;;;3.35;;
40367;SDS011;26075;43.320;21.920;2023-06-10T05:11:29;4.63;;;3.50;;
40367;SDS011;26075;43.320;21.920;2023-06-10T05:16:30;5.38;;;3.22;;
40367;SDS011;26075;43.320;21.920;2023-06-10T05:21:31;6.05;;;3.60;;
40367;SDS011;26075;43.320;21.920;2023-06-10T05:26:32;6.75;;;3.60;;
40367;SDS011;26075;43.320;21.920;2023-06-10T05:31:37;6.63;;;3.72;;
40367;SDS011;26075;43.320;21.920;2023-06-10T05:36:38;5.82;;;3.75;;
40367;SDS011;26075;43.320;21.920;2023-06-10T05:41:39;6.88;;;3.63;;
40367;SDS011;26075;43.320;21.920;2023-06-10T05:46:40;9.70;;;4.22;;
40367;SDS011;26075;43.320;21.920;2023-06-10T05:51:42;14.07;;;4.70;;
40367;SDS011;26075;43.320;21.920;2023-06-10T05:56:43;8.90;;;5.20;;
40367;SDS011;26075;43.320;21.920;2023-06-10T06:01:44;8.88;;;5.22;;
40367;SDS011;26075;43.320;21.920;2023-06-10T06:06:46;9.15;;;5.60;;
40367;SDS011;26075;43.320;21.920;2023-06-10T06:11:47;13.18;;;6.80;;
40367;SDS011;26075;43.320;21.920;2023-06-10T06:16:49;13.85;;;6.82;;
40367;SDS011;26075;43.320;21.920;2023-06-10T06:21:50;10.57;;;6.53;;
40367;SDS011;26075;43.320;21.920;2023-06-10T06:26:51;9.55;;;5.97;;
40367;SDS011;26075;43.320;21.920;2023-06-10T06:31:52;10.70;;;6.50;;
40367;SDS011;26075;43.320;21.920;2023-06-10T06:36:53;10.85;;;6.90;;
40367;SDS011;26075;43.320;21.920;2023-06-10T06:41:54;10.50;;;6.68;;
40367;SDS011;26075;43.320;21.920;2023-06-10T06:46:55;13.05;;;6.13;;
40367;SDS011;26075;43.320;21.920;2023-06-10T06:51:57;12.52;;;5.88;;
40367;SDS011;26075;43.320;21.920;2023-06-10T06:56:58;12.57;;;6.72;;
40367;SDS011;26075;43.320;21.920;2023-06-10T07:01:59;14.80;;;6.50;;
40367;SDS011;26075;43.320;21.920;2023-06-10T07:07:00;14.40;;;6.22;;
40367;SDS011;26075;43.320;21.920;2023-06-10T07:12:01;7.00;;;5.68;;
40367;SDS011;26075;43.320;21.920;2023-06-10T07:17:02;8.85;;;5.40;;
40367;SDS011;26075;43.320;21.920;2023-06-10T07:22:03;7.57;;;5.32;;
40367;SDS011;26075;43.320;21.920;2023-06-10T07:27:05;6.78;;;4.90;;
40367;SDS011;26075;43.320;21.920;2023-06-10T07:32:07;8.18;;;4.60;;
40367;SDS011;26075;43.320;21.920;2023-06-10T07:37:08;8.90;;;5.07;;
40367;SDS011;26075;43.320;21.920;2023-06-10T07:42:09;9.20;;;5.43;;
40367;SDS011;26075;43.320;21.920;2023-06-10T07:47:10;7.55;;;4.68;;
40367;SDS011;26075;43.320;21.920;2023-06-10T07:52:11;7.07;;;4.88;;
40367;SDS011;26075;43.320;21.920;2023-06-10T07:57:12;10.15;;;4.28;;
40367;SDS011;26075;43.320;21.920;2023-06-10T08:02:14;8.27;;;5.43;;
40367;SDS011;26075;43.320;21.920;2023-06-10T08:07:15;6.72;;;4.70;;
40367;SDS011;26075;43.320;21.920;2023-06-10T08:12:18;7.40;;;4.78;;
40367;SDS011;26075;43.320;21.920;2023-06-10T08:17:20;14.85;;;7.25;;
40367;SDS011;26075;43.320;21.920;2023-06-10T08:22:21;10.27;;;6.75;;
40367;SDS011;26075;43.320;21.920;2023-06-10T08:27:22;8.35;;;4.82;;
40367;SDS011;26075;43.320;21.920;2023-06-10T08:32:23;9.70;;;5.78;;
40367;SDS011;26075;43.320;21.920;2023-06-10T08:37:24;11.85;;;5.40;;
40367;SDS011;26075;43.320;21.920;2023-06-10T08:42:33;15.60;;;7.03;;
40367;SDS011;26075;43.320;21.920;2023-06-10T08:47:35;7.38;;;6.13;;
40367;SDS011;26075;43.320;21.920;2023-06-10T08:52:41;10.95;;;7.32;;
40367;SDS011;26075;43.320;21.920;2023-06-10T08:57:43;12.65;;;6.43;;
40367;SDS011;26075;43.320;21.920;2023-06-10T09:02:45;8.80;;;7.18;;
40367;SDS011;26075;43.320;21.920;2023-06-10T09:07:51;17.20;;;9.80;;
40367;SDS011;26075;43.320;21.920;2023-06-10T09:12:52;11.43;;;6.82;;
40367;SDS011;26075;43.320;21.920;2023-06-10T09:17:54;10.23;;;7.38;;
40367;SDS011;26075;43.320;21.920;2023-06-10T09:22:55;8.88;;;7.70;;
40367;SDS011;26075;43.320;21.920;2023-06-10T09:27:56;9.10;;;7.82;;
40367;SDS011;26075;43.320;21.920;2023-06-10T09:32:59;9.65;;;8.38;;
40367;SDS011;26075;43.320;21.920;2023-06-10T09:38:00;11.95;;;8.13;;
40367;SDS011;26075;43.320;21.920;2023-06-10T09:43:02;12.75;;;8.52;;
40367;SDS011;26075;43.320;21.920;2023-06-10T09:48:03;9.23;;;8.27;;
40367;SDS011;26075;43.320;21.920;2023-06-10T09:53:05;9.77;;;7.70;;
40367;SDS011;26075;43.320;21.920;2023-06-10T09:58:07;12.05;;;9.63;;
40367;SDS011;26075;43.320;21.920;2023-06-10T10:03:08;11.55;;;7.93;;
40367;SDS011;26075;43.320;21.920;2023-06-10T10:08:09;10.52;;;8.38;;
40367;SDS011;26075;43.320;21.920;2023-06-10T10:13:10;14.75;;;10.15;;
40367;SDS011;26075;43.320;21.920;2023-06-10T10:18:11;14.27;;;10.05;;
40367;SDS011;26075;43.320;21.920;2023-06-10T10:23:18;12.30;;;10.57;;
40367;SDS011;26075;43.320;21.920;2023-06-10T10:28:24;10.27;;;9.20;;
40367;SDS011;26075;43.320;21.920;2023-06-10T10:38:28;10.20;;;9.15;;
40367;SDS011;26075;43.320;21.920;2023-06-10T10:43:30;10.50;;;9.15;;
40367;SDS011;26075;43.320;21.920;2023-06-10T10:48:35;11.77;;;10.35;;
40367;SDS011;26075;43.320;21.920;2023-06-10T10:53:37;11.98;;;10.40;;
40367;SDS011;26075;43.320;21.920;2023-06-10T10:58:39;13.27;;;11.02;;
40367;SDS011;26075;43.320;21.920;2023-06-10T11:03:44;10.98;;;9.88;;
40367;SDS011;26075;43.320;21.920;2023-06-10T11:08:46;14.07;;;10.00;;
40367;SDS011;26075;43.320;21.920;2023-06-10T11:13:58;11.48;;;10.27;;
40367;SDS011;26075;43.320;21.920;2023-06-10T11:19:01;15.18;;;10.20;;
40367;SDS011;26075;43.320;21.920;2023-06-10T11:24:11;12.57;;;10.05;;
40367;SDS011;26075;43.320;21.920;2023-06-10T11:29:14;12.80;;;9.20;;
40367;SDS011;26075;43.320;21.920;2023-06-10T11:34:20;8.85;;;7.32;;
40367;SDS011;26075;43.320;21.920;2023-06-10T11:39:23;9.88;;;6.90;;
40367;SDS011;26075;43.320;21.920;2023-06-10T11:44:27;9.57;;;7.15;;
40367;SDS011;26075;43.320;21.920;2023-06-10T11:49:29;7.25;;;6.45;;
40367;SDS011;26075;43.320;21.920;2023-06-10T11:54:30;10.55;;;6.95;;
40367;SDS011;26075;43.320;21.920;2023-06-10T11:59:31;8.90;;;6.97;;
40367;SDS011;26075;43.320;21.920;2023-06-10T12:04:32;9.32;;;6.55;;
40367;SDS011;26075;43.320;21.920;2023-06-10T12:09:33;7.55;;;6.03;;
40367;SDS011;26075;43.320;21.920;2023-06-10T12:14:49;7.43;;;5.63;;
40367;SDS011;26075;43.320;21.920;2023-06-10T12:19:54;9.07;;;6.03;;
40367;SDS011;26075;43.320;21.920;2023-06-10T12:24:59;12.27;;;7.20;;
40367;SDS011;26075;43.320;21.920;2023-06-10T12:30:01;7.68;;;6.47;;
40367;SDS011;26075;43.320;21.920;2023-06-10T12:35:05;8.85;;;6.00;;
40367;SDS011;26075;43.320;21.920;2023-06-10T12:40:06;9.23;;;5.82;;
40367;SDS011;26075;43.320;21.920;2023-06-10T12:45:10;7.43;;;5.87;;
40367;SDS011;26075;43.320;21.920;2023-06-10T12:50:12;7.10;;;5.72;;
40367;SDS011;26075;43.320;21.920;2023-06-10T12:55:13;6.78;;;5.97;;
40367;SDS011;26075;43.320;21.920;2023-06-10T13:00:15;6.32;;;5.38;;
40367;SDS011;26075;43.320;21.920;2023-06-10T13:05:16;6.43;;;5.25;;
40367;SDS011;26075;43.320;21.920;2023-06-10T13:10:18;7.65;;;6.40;;
40367;SDS011;26075;43.320;21.920;2023-06-10T13:15:19;8.00;;;5.80;;
40367;SDS011;26075;43.320;21.920;2023-06-10T13:20:20;8.60;;;6.13;;
40367;SDS011;26075;43.320;21.920;2023-06-10T13:25:21;13.85;;;9.65;;
40367;SDS011;26075;43.320;21.920;2023-06-10T13:30:23;6.65;;;5.60;;
40367;SDS011;26075;43.320;21.920;2023-06-10T13:35:24;7.10;;;6.07;;
40367;SDS011;26075;43.320;21.920;2023-06-10T13:40:25;11.50;;;6.22;;
40367;SDS011;26075;43.320;21.920;2023-06-10T13:45:26;6.88;;;5.38;;
40367;SDS011;26075;43.320;21.920;2023-06-10T13:50:28;6.28;;;5.28;;
40367;SDS011;26075;43.320;21.920;2023-06-10T13:55:29;9.70;;;5.13;;
40367;SDS011;26075;43.320;21.920;2023-06-10T14:00:30;9.60;;;5.22;;
40367;SDS011;26075;43.320;21.920;2023-06-10T14:05:31;7.45;;;5.90;;
40367;SDS011;26075;43.320;21.920;2023-06-10T14:10:33;6.72;;;5.00;;
40367;SDS011;26075;43.320;21.920;2023-06-10T14:15:34;7.82;;;5.63;;
40367;SDS011;26075;43.320;21.920;2023-06-10T14:20:36;8.82;;;6.10;;
40367;SDS011;26075;43.320;21.920;2023-06-10T14:25:37;7.20;;;6.00;;
40367;SDS011;26075;43.320;21.920;2023-06-10T14:30:38;10.25;;;6.03;;
40367;SDS011;26075;43.320;21.920;2023-06-10T14:35:39;6.95;;;5.82;;
40367;SDS011;26075;43.320;21.920;2023-06-10T14:40:40;8.57;;;6.85;;
40367;SDS011;26075;43.320;21.920;2023-06-10T14:45:41;7.40;;;6.15;;
40367;SDS011;26075;43.320;21.920;2023-06-10T14:50:43;10.57;;;8.02;;
40367;SDS011;26075;43.320;21.920;2023-06-10T14:55:46;15.45;;;9.43;;
40367;SDS011;26075;43.320;21.920;2023-06-10T15:00:47;16.23;;;9.18;;
40367;SDS011;26075;43.320;21.920;2023-06-10T15:05:49;10.80;;;7.93;;
40367;SDS011;26075;43.320;21.920;2023-06-10T15:10:50;9.35;;;6.30;;
40367;SDS011;26075;43.320;21.920;2023-06-10T15:15:51;9.82;;;6.93;;
40367;SDS011;26075;43.320;21.920;2023-06-10T15:20:52;8.65;;;6.75;;
40367;SDS011;26075;43.320;21.920;2023-06-10T15:25:53;8.13;;;6.65;;
40367;SDS011;26075;43.320;21.920;2023-06-10T15:30:54;11.13;;;7.97;;
40367;SDS011;26075;43.320;21.920;2023-06-10T15:35:55;9.57;;;7.38;;
40367;SDS011;26075;43.320;21.920;2023-06-10T15:40:56;7.15;;;5.90;;
40367;SDS011;26075;43.320;21.920;2023-06-10T15:45:58;6.68;;;5.88;;
40367;SDS011;26075;43.320;21.920;2023-06-10T15:51:00;7.65;;;6.22;;
40367;SDS011;26075;43.320;21.920;2023-06-10T15:56:01;7.30;;;5.70;;
40367;SDS011;26075;43.320;21.920;2023-06-10T16:01:03;8.35;;;6.40;;
40367;SDS011;26075;43.320;21.920;2023-06-10T16:06:04;8.20;;;6.80;;
40367;SDS011;26075;43.320;21.920;2023-06-10T16:11:05;8.68;;;6.20;;
40367;SDS011;26075;43.320;21.920;2023-06-10T16:16:06;9.15;;;5.90;;
40367;SDS011;26075;43.320;21.920;2023-06-10T16:21:07;9.48;;;6.43;;
40367;SDS011;26075;43.320;21.920;2023-06-10T16:26:08;8.23;;;5.95;;
40367;SDS011;26075;43.320;21.920;2023-06-10T16:31:10;7.38;;;5.90;;
40367;SDS011;26075;43.320;21.920;2023-06-10T16:36:11;8.02;;;5.93;;
40367;SDS011;26075;43.320;21.920;2023-06-10T16:41:12;7.18;;;6.05;;
40367;SDS011;26075;43.320;21.920;2023-06-10T16:46:13;8.18;;;6.35;;
40367;SDS011;26075;43.320;21.920;2023-06-10T16:51:14;9.90;;;6.80;;
40367;SDS011;26075;43.320;21.920;2023-06-10T16:56:15;9.55;;;5.93;;
40367;SDS011;26075;43.320;21.920;2023-06-10T17:01:16;8.00;;;6.75;;
40367;SDS011;26075;43.320;21.920;2023-06-10T17:06:17;8.35;;;6.18;;
40367;SDS011;26075;43.320;21.920;2023-06-10T17:11:18;8.38;;;5.78;;
40367;SDS011;26075;43.320;21.920;2023-06-10T17:16:21;7.72;;;6.50;;
40367;SDS011;26075;43.320;21.920;2023-06-10T17:21:22;7.13;;;5.80;;
40367;SDS011;26075;43.320;21.920;2023-06-10T17:26:23;7.72;;;5.70;;
40367;SDS011;26075;43.320;21.920;2023-06-10T17:31:25;6.40;;;5.30;;
40367;SDS011;26075;43.320;21.920;2023-06-10T17:36:27;11.50;;;6.57;;
40367;SDS011;26075;43.320;21.920;2023-06-10T17:41:28;7.50;;;5.80;;
40367;SDS011;26075;43.320;21.920;2023-06-10T17:46:29;7.70;;;6.22;;
40367;SDS011;26075;43.320;21.920;2023-06-10T17:51:30;8.57;;;6.22;;
40367;SDS011;26075;43.320;21.920;2023-06-10T17:56:31;10.70;;;7.40;;
40367;SDS011;26075;43.320;21.920;2023-06-10T18:01:32;8.40;;;6.43;;
40367;SDS011;26075;43.320;21.920;2023-06-10T18:06:33;7.90;;;6.10;;
40367;SDS011;26075;43.320;21.920;2023-06-10T18:11:35;9.50;;;7.13;;
40367;SDS011;26075;43.320;21.920;2023-06-10T18:16:36;7.68;;;5.72;;
40367;SDS011;26075;43.320;21.920;2023-06-10T18:21:37;13.27;;;8.75;;
40367;SDS011;26075;43.320;21.920;2023-06-10T18:26:39;18.35;;;7.18;;
40367;SDS011;26075;43.320;21.920;2023-06-10T18:31:40;14.05;;;6.47;;
40367;SDS011;26075;43.320;21.920;2023-06-10T18:36:41;13.55;;;7.45;;
40367;SDS011;26075;43.320;21.920;2023-06-10T18:41:42;13.38;;;7.28;;
40367;SDS011;26075;43.320;21.920;2023-06-10T18:46:43;11.90;;;7.25;;
40367;SDS011;26075;43.320;21.920;2023-06-10T18:51:45;9.65;;;7.07;;
40367;SDS011;26075;43.320;21.920;2023-06-10T18:56:46;10.65;;;6.70;;
40367;SDS011;26075;43.320;21.920;2023-06-10T19:01:48;10.35;;;7.07;;
40367;SDS011;26075;43.320;21.920;2023-06-10T19:06:49;11.25;;;7.22;;
40367;SDS011;26075;43.320;21.920;2023-06-10T19:11:50;9.48;;;6.80;;
40367;SDS011;26075;43.320;21.920;2023-06-10T19:16:51;9.20;;;6.70;;
40367;SDS011;26075;43.320;21.920;2023-06-10T19:21:52;10.70;;;6.35;;
40367;SDS011;26075;43.320;21.920;2023-06-10T19:26:53;9.02;;;6.47;;
40367;SDS011;26075;43.320;21.920;2023-06-10T19:31:54;12.52;;;7.40;;
40367;SDS011;26075;43.320;21.920;2023-06-10T19:36:55;10.07;;;7.05;;
40367;SDS011;26075;43.320;21.920;2023-06-10T19:41:56;9.80;;;7.00;;
40367;SDS011;26075;43.320;21.920;2023-06-10T19:46:57;12.70;;;8.00;;
40367;SDS011;26075;43.320;21.920;2023-06-10T19:51:58;13.52;;;7.70;;
40367;SDS011;26075;43.320;21.920;2023-06-10T19:57:01;10.63;;;7.53;;
40367;SDS011;26075;43.320;21.920;2023-06-10T20:02:02;13.07;;;8.18;;
40367;SDS011;26075;43.320;21.920;2023-06-10T20:07:04;9.48;;;7.10;;
40367;SDS011;26075;43.320;21.920;2023-06-10T20:12:05;11.57;;;8.00;;
40367;SDS011;26075;43.320;21.920;2023-06-10T20:17:07;16.40;;;8.82;;
40367;SDS011;26075;43.320;21.920;2023-06-10T20:22:08;10.27;;;7.15;;
40367;SDS011;26075;43.320;21.920;2023-06-10T20:27:09;12.93;;;7.80;;
40367;SDS011;26075;43.320;21.920;2023-06-10T20:32:10;13.90;;;7.68;;
40367;SDS011;26075;43.320;21.920;2023-06-10T20:37:11;12.18;;;7.40;;
40367;SDS011;26075;43.320;21.920;2023-06-10T20:42:12;13.02;;;8.45;;
40367;SDS011;26075;43.320;21.920;2023-06-10T20:47:15;13.68;;;7.10;;
40367;SDS011;26075;43.320;21.920;2023-06-10T20:52:16;10.35;;;7.13;;
40367;SDS011;26075;43.320;21.920;2023-06-10T20:57:17;10.35;;;7.28;;
40367;SDS011;26075;43.320;21.920;2023-06-10T21:02:19;10.82;;;6.88;;
40367;SDS011;26075;43.320;21.920;2023-06-10T21:07:20;9.70;;;6.78;;
40367;SDS011;26075;43.320;21.920;2023-06-10T21:12:21;10.20;;;5.90;;
40367;SDS011;26075;43.320;21.920;2023-06-10T21:17:22;14.80;;;6.97;;
40367;SDS011;26075;43.320;21.920;2023-06-10T21:22:23;11.38;;;8.15;;
40367;SDS011;26075;43.320;21.920;2023-06-10T21:27:24;9.02;;;6.75;;
40367;SDS011;26075;43.320;21.920;2023-06-10T21:32:26;10.18;;;6.78;;
40367;SDS011;26075;43.320;21.920;2023-06-10T21:37:28;11.52;;;7.07;;
40367;SDS011;26075;43.320;21.920;2023-06-10T21:42:29;12.43;;;7.45;;
40367;SDS011;26075;43.320;21.920;2023-06-10T21:47:30;10.25;;;7.00;;
40367;SDS011;26075;43.320;21.920;2023-06-10T21:52:31;9.60;;;7.20;;
40367;SDS011;26075;43.320;21.920;2023-06-10T21:57:32;13.13;;;7.60;;
40367;SDS011;26075;43.320;21.920;2023-06-10T22:02:33;12.07;;;6.30;;
40367;SDS011;26075;43.320;21.920;2023-06-10T22:07:34;8.75;;;6.20;;
40367;SDS011;26075;43.320;21.920;2023-06-10T22:12:36;8.63;;;6.05;;
40367;SDS011;26075;43.320;21.920;2023-06-10T22:17:37;8.65;;;6.18;;
40367;SDS011;26075;43.320;21.920;2023-06-10T22:22:38;7.65;;;5.88;;
40367;SDS011;26075;43.320;21.920;2023-06-10T22:27:39;7.35;;;5.28;;
40367;SDS011;26075;43.320;21.920;2023-06-10T22:32:40;9.65;;;6.40;;
40367;SDS011;26075;43.320;21.920;2023-06-10T22:37:41;11.98;;;6.07;;
40367;SDS011;26075;43.320;21.920;2023-06-10T22:42:42;14.10;;;6.82;;
40367;SDS011;26075;43.320;21.920;2023-06-10T22:47:43;9.88;;;6.22;;
40367;SDS011;26075;43.320;21.920;2023-06-10T22:52:44;10.52;;;5.82;;
40367;SDS011;26075;43.320;21.920;2023-06-10T22:57:45;10.13;;;6.45;;
40367;SDS011;26075;43.320;21.920;2023-06-10T23:02:47;8.70;;;5.65;;
40367;SDS011;26075;43.320;21.920;2023-06-10T23:07:48;10.27;;;5.95;;
40367;SDS011;26075;43.320;21.920;2023-06-10T23:12:49;9.85;;;5.50;;
40367;SDS011;26075;43.320;21.920;2023-06-10T23:17:50;9.43;;;6.28;;
40367;SDS011;26075;43.320;21.920;2023-06-10T23:22:55;7.95;;;5.68;;
40367;SDS011;26075;43.320;21.920;2023-06-10T23:27:56;10.52;;;6.00;;
40367;SDS011;26075;43.320;21.920;2023-06-10T23:32:57;8.90;;;5.85;;
40367;SDS011;26075;43.320;21.920;2023-06-10T23:37:58;7.03;;;5.85;;
40367;SDS011;26075;43.320;21.920;2023-06-10T23:42:59;9.95;;;5.55;;
40367;SDS011;26075;43.320;21.920;2023-06-10T23:48:00;7.18;;;5.80;;
40367;SDS011;26075;43.320;21.920;2023-06-10T23:53:02;7.18;;;5.45;;
40367;SDS011;26075;43.320;21.920;2023-06-10T23:58:03;14.55;;;5.38;;
